Accueil
METAR-TAF:

METAR-TAF

Aéroports :

Aéroport international Pierre-Elliott-Trudeau de Montréal

Montréal Trudeau, Québec, Canada

latitude: 45-28N, longitude: 073-45W, altitude: 31 m

Observation

Le bulletin a été fait il y a 53 minutes, à 16:00 UTC
Vent 9 kt de sud-ouest
Température 25°C
Humidité 50%
Pression 1018 hPa
Visibilité: 48.3 km
Quelques nuages à une hauteur de 5000 ft

METAR: CYUL 201600Z 22009KT 30SM FEW050 25/14 A3005 RMK SC1 SC TR SLP177 DENSITY ALT 1200FT

Heure: 12:53 (16:53 UTC)

Prévision

Le bulletin a été fait il y a 2 heures et 15 minutes, à 14:38 UTC
Prévision valable du 20 à 15 UTC au 21 à 12 UTC
Vent 10 kt de sud-ouest
Visibilité: 10 km
Ciel clair
A partir de 21 à 0900 UTC
Vent 5 kt de est
Visibilité: 10 km
Nuages fragmentés à une hauteur de 6000 ft

TAF: CYUL 201438Z 2015/2112 23010KT P6SM SKC FM210900 08005KT P6SM BKN060 RMK NXT FCST BY 201800Z

Observations et prévisions météorologiques de plus de 4000 aéroports (messages METAR et TAF).

Les stations disponibles sont représentées par des disques jaunes et rouges sur la carte.

Passer la souris dessus pour voir le nom de la station.

Cliquer dessus pour voir les observations et prévisions météorologiques.

Pour changer de carte: cliquez sur les boutons verts avec une croix noire pour zoomer, sur le bouton vert avec un tiret pour effectuer un zoom arrière, ou sur les flèches vertes pour les cartes adjacentes.


METAR-TAF: